Time;durP1;ratioP1;P1;durP2;ratioP2;P2;SDS_P1;SDS_P2;PMS_P1;PMS_P2;Temp;Humidity;BMP_temperature;BMP_pressure;BME280_temperature;BME280_humidity;BME280_pressure;Samples;Min_cycle;Max_cycle;Signal;HPM_P1;HPM_P2
2021/08/14 00:00:28;;;;;;;;;;;20.90;99.90;;;;;;2106543;28;1685;-58
2021/08/14 00:01:48;;;;;;;;;;;20.90;99.90;;;;;;2114898;28;802;-57
2021/08/14 00:03:07;;;;;;;;;;;20.90;99.90;;;;;;2115011;28;767;-56
2021/08/14 00:04:26;;;;;;;;;;;20.90;99.90;;;;;;2113974;28;1333;-57
2021/08/14 00:05:45;;;;;;;;;;;20.90;99.90;;;;;;2105975;28;1971;-57
2021/08/14 00:07:04;;;;;;;;;;;20.80;99.90;;;;;;2097816;28;711;-57
2021/08/14 00:08:24;;;;;;;;;;;20.90;99.90;;;;;;2097743;28;781;-57
2021/08/14 00:09:43;;;;;;;;;;;20.90;99.90;;;;;;2097763;28;748;-58
2021/08/14 00:11:03;;;;;;;;;;;20.90;99.90;;;;;;2097905;28;757;-57
2021/08/14 00:12:22;;;;;;;;;;;20.90;99.90;;;;;;2098134;28;748;-57
2021/08/14 00:13:41;;;;;;;;;;;20.90;99.90;;;;;;2098067;28;1907;-58
2021/08/14 00:15:00;;;;;;;;;;;20.90;99.90;;;;;;2097409;28;1398;-57
2021/08/14 00:16:20;;;;;;;;;;;20.80;99.90;;;;;;2097581;28;749;-59
2021/08/14 00:17:39;;;;;;;;;;;20.90;99.90;;;;;;2101433;28;1969;-59
2021/08/14 00:18:58;;;;;;;;;;;20.90;99.90;;;;;;2105623;28;791;-59
2021/08/14 00:20:17;;;;;;;;;;;20.90;99.90;;;;;;2097825;28;1725;-57
2021/08/14 00:21:36;;;;;;;;;;;20.80;99.90;;;;;;2097582;28;749;-58
2021/08/14 00:22:59;;;;;;;;;;;20.90;99.90;;;;;;2106297;28;1441;-58
2021/08/14 00:24:18;;;;;;;;;;;20.80;99.90;;;;;;2105732;28;1516;-58
2021/08/14 00:25:38;;;;;;;;;;;20.90;99.90;;;;;;2106225;28;746;-57
2021/08/14 00:26:57;;;;;;;;;;;20.90;99.90;;;;;;2097200;28;745;-58
2021/08/14 00:28:17;;;;;;;;;;;20.80;99.90;;;;;;2102652;28;945;-58
2021/08/14 00:29:37;;;;;;;;;;;20.80;99.90;;;;;;2112024;28;908;-58
2021/08/14 00:30:57;;;;;;;;;;;20.80;99.90;;;;;;2101229;28;892;-58
2021/08/14 00:32:16;;;;;;;;;;;20.80;99.90;;;;;;2095870;28;1527;-58
2021/08/14 00:33:35;;;;;;;;;;;20.80;99.90;;;;;;2093816;28;1909;-58
2021/08/14 00:34:54;;;;;;;;;;;20.80;99.90;;;;;;2102340;28;1505;-58
2021/08/14 00:36:14;;;;;;;;;;;20.80;99.90;;;;;;2101045;28;779;-58
2021/08/14 00:37:33;;;;;;;;;;;20.80;99.90;;;;;;2105541;28;759;-57
2021/08/14 00:38:52;;;;;;;;;;;20.80;99.90;;;;;;2096928;28;784;-58
2021/08/14 00:40:12;;;;;;;;;;;20.80;99.90;;;;;;2097283;28;1713;-58
2021/08/14 00:41:32;;;;;;;;;;;20.80;99.90;;;;;;2085788;28;766;-57
2021/08/14 00:42:51;;;;;;;;;;;20.80;99.90;;;;;;2094143;28;793;-58
2021/08/14 00:44:10;;;;;;;;;;;20.80;99.90;;;;;;2097509;28;1369;-58
2021/08/14 00:45:29;;;;;;;;;;;20.80;99.90;;;;;;2097198;28;803;-58
2021/08/14 00:46:49;;;;;;;;;;;20.80;99.90;;;;;;2096815;28;718;-55
2021/08/14 00:48:08;;;;;;;;;;;20.80;99.90;;;;;;2096392;28;1972;-58
2021/08/14 00:49:27;;;;;;;;;;;20.80;99.90;;;;;;2100686;28;1087;-57
2021/08/14 00:50:46;;;;;;;;;;;20.80;99.90;;;;;;2100570;28;1662;-58
2021/08/14 00:52:06;;;;;;;;;;;20.80;99.90;;;;;;2105913;28;769;-56
2021/08/14 00:53:25;;;;;;;;;;;20.80;99.90;;;;;;2097246;28;770;-57
2021/08/14 00:54:44;;;;;;;;;;;20.80;99.90;;;;;;2102528;28;1322;-58
2021/08/14 00:56:04;;;;;;;;;;;20.80;99.90;;;;;;2105713;28;850;-57
2021/08/14 00:57:23;;;;;;;;;;;20.80;99.90;;;;;;2093989;28;747;-57
2021/08/14 00:58:42;;;;;;;;;;;20.80;99.90;;;;;;2098829;28;908;-58
2021/08/14 01:00:02;;;;;;;;;;;20.80;99.90;;;;;;2096836;28;1639;-57
2021/08/14 01:01:21;;;;;;;;;;;20.80;99.90;;;;;;2101665;28;964;-58
2021/08/14 01:02:40;;;;;;;;;;;20.80;99.90;;;;;;2093646;28;746;-57
2021/08/14 01:03:59;;;;;;;;;;;20.80;99.90;;;;;;2095282;28;2076;-58
2021/08/14 01:05:18;;;;;;;;;;;20.80;99.90;;;;;;2102217;28;995;-58
2021/08/14 01:06:38;;;;;;;;;;;20.80;99.90;;;;;;2094069;28;1503;-56
2021/08/14 01:07:57;;;;;;;;;;;20.80;99.90;;;;;;2102850;28;779;-57
2021/08/14 01:09:16;;;;;;;;;;;20.80;99.90;;;;;;2107984;28;741;-58
2021/08/14 01:10:36;;;;;;;;;;;20.80;99.90;;;;;;2101823;28;1973;-58
2021/08/14 01:11:56;;;;;;;;;;;20.70;99.90;;;;;;2099006;28;736;-58
2021/08/14 01:13:15;;;;;;;;;;;20.80;99.90;;;;;;2098799;28;714;-58
2021/08/14 01:14:34;;;;;;;;;;;20.80;99.90;;;;;;2097752;28;1361;-58
2021/08/14 01:15:54;;;;;;;;;;;20.70;99.90;;;;;;2102898;28;1947;-57
2021/08/14 01:17:14;;;;;;;;;;;20.70;99.90;;;;;;2104887;28;813;-58
2021/08/14 01:18:34;;;;;;;;;;;20.70;99.90;;;;;;2103610;28;900;-58
2021/08/14 01:19:53;;;;;;;;;;;20.70;99.90;;;;;;2086966;28;787;-58
2021/08/14 01:21:18;;;;;;;;;;;20.70;99.90;;;;;;2099644;28;1383;-58
2021/08/14 01:22:40;;;;;;;;;;;20.70;99.90;;;;;;2090314;28;733;-56
2021/08/14 01:24:01;;;;;;;;;;;20.70;99.90;;;;;;2090225;28;745;-57
2021/08/14 01:25:20;;;;;;;;;;;20.70;99.90;;;;;;2103995;28;710;-58
2021/08/14 01:26:40;;;;;;;;;;;20.70;99.90;;;;;;2106825;28;1598;-57
2021/08/14 01:28:00;;;;;;;;;;;20.70;99.90;;;;;;2107678;28;716;-57
2021/08/14 01:29:19;;;;;;;;;;;20.70;99.90;;;;;;2112873;28;1111;-58
2021/08/14 01:30:38;;;;;;;;;;;20.70;99.90;;;;;;2106227;28;1705;-57
2021/08/14 01:31:57;;;;;;;;;;;20.70;99.90;;;;;;2112306;28;783;-57
2021/08/14 01:33:16;;;;;;;;;;;20.70;99.90;;;;;;2111963;28;724;-56
2021/08/14 01:34:37;;;;;;;;;;;20.70;99.90;;;;;;2115625;28;1478;-56
2021/08/14 01:35:56;;;;;;;;;;;20.70;99.90;;;;;;2115568;28;798;-57
2021/08/14 01:37:15;;;;;;;;;;;20.70;99.90;;;;;;2111879;28;744;-58
2021/08/14 01:38:43;;;;;;;;;;;20.70;99.90;;;;;;2103300;28;739;-58
2021/08/14 01:40:03;;;;;;;;;;;20.70;99.90;;;;;;2096755;28;774;-57
2021/08/14 01:41:22;;;;;;;;;;;20.70;99.90;;;;;;2098786;28;1666;-58
2021/08/14 01:42:41;;;;;;;;;;;20.70;99.90;;;;;;2100056;28;1964;-58
2021/08/14 01:44:02;;;;;;;;;;;20.70;99.90;;;;;;2105543;28;1365;-57
2021/08/14 01:45:21;;;;;;;;;;;20.70;99.90;;;;;;2107232;28;706;-57
2021/08/14 01:46:41;;;;;;;;;;;20.70;99.90;;;;;;2107020;28;777;-58
2021/08/14 01:48:01;;;;;;;;;;;20.70;99.90;;;;;;2107245;28;751;-56
2021/08/14 01:49:20;;;;;;;;;;;20.70;99.90;;;;;;2107305;28;712;-61
2021/08/14 01:50:40;;;;;;;;;;;20.70;99.90;;;;;;2106349;28;812;-62
2021/08/14 01:51:59;;;;;;;;;;;20.70;99.90;;;;;;2095063;28;772;-59
2021/08/14 01:53:18;;;;;;;;;;;20.70;99.90;;;;;;2103538;28;742;-60
2021/08/14 01:54:38;;;;;;;;;;;20.70;99.90;;;;;;2106038;28;1743;-59
2021/08/14 01:55:57;;;;;;;;;;;20.60;99.90;;;;;;2103494;28;774;-61
2021/08/14 01:57:16;;;;;;;;;;;20.60;99.90;;;;;;2096661;28;1687;-61
2021/08/14 01:58:36;;;;;;;;;;;20.60;99.90;;;;;;2100703;28;764;-58
2021/08/14 01:59:55;;;;;;;;;;;20.60;99.90;;;;;;2113814;28;1212;-62
2021/08/14 02:01:14;;;;;;;;;;;20.60;99.90;;;;;;2107304;28;1098;-58
2021/08/14 02:02:33;;;;;;;;;;;20.60;99.90;;;;;;2105676;28;1501;-62
2021/08/14 02:03:52;;;;;;;;;;;20.60;99.90;;;;;;2106341;28;1790;-60
2021/08/14 02:05:12;;;;;;;;;;;20.60;99.90;;;;;;2106377;28;752;-58
2021/08/14 02:06:31;;;;;;;;;;;20.60;99.90;;;;;;2102708;28;817;-59
2021/08/14 02:07:50;;;;;;;;;;;20.60;99.90;;;;;;2095060;28;726;-61
2021/08/14 02:09:09;;;;;;;;;;;20.60;99.90;;;;;;2103601;28;723;-61
2021/08/14 02:10:28;;;;;;;;;;;20.60;99.90;;;;;;2106135;28;753;-58
2021/08/14 02:11:48;;;;;;;;;;;20.60;99.90;;;;;;2106910;28;807;-60
2021/08/14 02:13:08;;;;;;;;;;;20.60;99.90;;;;;;2105816;28;1594;-59
2021/08/14 02:14:28;;;;;;;;;;;20.60;99.90;;;;;;2098272;28;1974;-59
2021/08/14 02:15:47;;;;;;;;;;;20.60;99.90;;;;;;2098893;28;723;-60
2021/08/14 02:17:06;;;;;;;;;;;20.60;99.90;;;;;;2097757;28;764;-60
2021/08/14 02:18:26;;;;;;;;;;;20.60;99.90;;;;;;2100320;28;1416;-60
2021/08/14 02:19:45;;;;;;;;;;;20.60;99.90;;;;;;2097081;28;740;-59
2021/08/14 02:21:04;;;;;;;;;;;20.60;99.90;;;;;;2099820;28;786;-62
2021/08/14 02:22:23;;;;;;;;;;;20.60;99.90;;;;;;2103182;28;725;-62
2021/08/14 02:23:42;;;;;;;;;;;20.60;99.90;;;;;;2098265;28;709;-61
2021/08/14 02:25:01;;;;;;;;;;;20.60;99.90;;;;;;2098103;28;1454;-60
2021/08/14 02:26:20;;;;;;;;;;;20.60;99.90;;;;;;2108687;28;1285;-59
2021/08/14 02:27:40;;;;;;;;;;;20.60;99.90;;;;;;2089724;28;1689;-62
2021/08/14 02:28:59;;;;;;;;;;;20.60;99.90;;;;;;2099879;28;861;-59
2021/08/14 02:30:18;;;;;;;;;;;20.50;99.90;;;;;;2108372;28;1053;-61
2021/08/14 02:31:37;;;;;;;;;;;20.60;99.90;;;;;;2114484;28;999;-58
2021/08/14 02:32:57;;;;;;;;;;;20.50;99.90;;;;;;2114191;28;1504;-59
2021/08/14 02:34:16;;;;;;;;;;;20.60;99.90;;;;;;2094715;28;1902;-60
2021/08/14 02:35:36;;;;;;;;;;;20.60;99.90;;;;;;2086534;28;765;-59
2021/08/14 02:36:55;;;;;;;;;;;20.60;99.90;;;;;;2083586;28;740;-60
2021/08/14 02:38:14;;;;;;;;;;;20.50;99.90;;;;;;2091689;28;748;-61
2021/08/14 02:39:33;;;;;;;;;;;20.50;99.90;;;;;;2094933;28;734;-58
2021/08/14 02:40:52;;;;;;;;;;;20.50;99.90;;;;;;2097876;28;772;-61
2021/08/14 02:42:11;;;;;;;;;;;20.50;99.90;;;;;;2097139;28;1709;-59
2021/08/14 02:43:31;;;;;;;;;;;20.50;99.90;;;;;;2094740;28;806;-61
2021/08/14 02:44:50;;;;;;;;;;;20.50;99.90;;;;;;2086683;28;1386;-60
2021/08/14 02:46:09;;;;;;;;;;;20.50;99.90;;;;;;2091501;28;769;-61
2021/08/14 02:47:28;;;;;;;;;;;20.50;99.90;;;;;;2094697;28;776;-60
2021/08/14 02:48:48;;;;;;;;;;;20.50;99.90;;;;;;2103259;28;1362;-60
2021/08/14 02:50:07;;;;;;;;;;;20.50;99.90;;;;;;2102509;28;752;-58
2021/08/14 02:51:26;;;;;;;;;;;20.50;99.90;;;;;;2096634;28;1565;-60
2021/08/14 02:52:46;;;;;;;;;;;20.50;99.90;;;;;;2098518;28;705;-60
2021/08/14 02:54:05;;;;;;;;;;;20.50;99.90;;;;;;2097574;28;1897;-59
2021/08/14 02:55:24;;;;;;;;;;;20.50;99.90;;;;;;2098273;28;740;-59
2021/08/14 02:56:43;;;;;;;;;;;20.50;99.90;;;;;;2097946;28;734;-57
2021/08/14 02:58:03;;;;;;;;;;;20.50;99.90;;;;;;2098324;28;751;-60
2021/08/14 02:59:22;;;;;;;;;;;20.50;99.90;;;;;;2111897;28;1117;-59
2021/08/14 03:00:41;;;;;;;;;;;20.50;99.90;;;;;;2106230;28;1050;-58
2021/08/14 03:02:00;;;;;;;;;;;20.50;99.90;;;;;;2097938;28;772;-60
2021/08/14 03:03:19;;;;;;;;;;;20.50;99.90;;;;;;2104327;28;1429;-58
2021/08/14 03:04:39;;;;;;;;;;;20.50;99.90;;;;;;2106538;28;1379;-60
2021/08/14 03:05:58;;;;;;;;;;;20.50;99.90;;;;;;2106320;28;763;-59
2021/08/14 03:07:17;;;;;;;;;;;20.50;99.90;;;;;;2103062;28;758;-59
2021/08/14 03:08:37;;;;;;;;;;;20.50;99.90;;;;;;2106402;28;771;-60
2021/08/14 03:09:56;;;;;;;;;;;20.50;99.90;;;;;;2106555;28;1639;-60
2021/08/14 03:11:15;;;;;;;;;;;20.50;99.90;;;;;;2106860;28;833;-62
2021/08/14 03:12:34;;;;;;;;;;;20.50;99.90;;;;;;2106101;28;760;-59
2021/08/14 03:13:54;;;;;;;;;;;20.50;99.90;;;;;;2106558;28;1898;-59
2021/08/14 03:15:13;;;;;;;;;;;20.50;99.90;;;;;;2097859;28;871;-59
2021/08/14 03:16:32;;;;;;;;;;;20.50;99.90;;;;;;2102864;28;745;-60
2021/08/14 03:17:52;;;;;;;;;;;20.50;99.90;;;;;;2098897;28;1603;-59
2021/08/14 03:19:11;;;;;;;;;;;20.50;99.90;;;;;;2086423;28;750;-58
2021/08/14 03:20:31;;;;;;;;;;;20.50;99.90;;;;;;2094704;28;730;-60
2021/08/14 03:21:50;;;;;;;;;;;20.50;99.90;;;;;;2097857;28;723;-58
2021/08/14 03:23:09;;;;;;;;;;;20.50;99.90;;;;;;2094750;28;740;-62
2021/08/14 03:24:28;;;;;;;;;;;20.50;99.90;;;;;;2102727;28;1508;-59
2021/08/14 03:25:48;;;;;;;;;;;20.50;99.90;;;;;;2106805;28;716;-61
2021/08/14 03:27:07;;;;;;;;;;;20.50;99.90;;;;;;2106563;28;756;-62
2021/08/14 03:28:26;;;;;;;;;;;20.50;99.90;;;;;;2106121;28;730;-61
2021/08/14 03:29:45;;;;;;;;;;;20.50;99.90;;;;;;2102132;28;962;-63
2021/08/14 03:31:05;;;;;;;;;;;20.50;99.90;;;;;;2105769;28;1099;-58
2021/08/14 03:32:24;;;;;;;;;;;20.50;99.90;;;;;;2100942;28;1682;-59
2021/08/14 03:33:43;;;;;;;;;;;20.50;99.90;;;;;;2085835;28;1989;-60
2021/08/14 03:35:02;;;;;;;;;;;20.50;99.90;;;;;;2094929;28;1375;-58
2021/08/14 03:36:21;;;;;;;;;;;20.50;99.90;;;;;;2097883;28;752;-58
2021/08/14 03:37:41;;;;;;;;;;;20.50;99.90;;;;;;2097834;28;808;-58
2021/08/14 03:39:00;;;;;;;;;;;20.50;99.90;;;;;;2097802;28;1586;-58
2021/08/14 03:40:19;;;;;;;;;;;20.50;99.90;;;;;;2093581;28;779;-58
2021/08/14 03:41:38;;;;;;;;;;;20.50;99.90;;;;;;2094587;28;716;-58
2021/08/14 03:42:58;;;;;;;;;;;20.50;99.90;;;;;;2103319;28;1064;-57
2021/08/14 03:44:17;;;;;;;;;;;20.50;99.90;;;;;;2097313;28;1475;-58
2021/08/14 03:45:36;;;;;;;;;;;20.50;99.90;;;;;;2097766;28;1691;-58
2021/08/14 03:46:55;;;;;;;;;;;20.50;99.90;;;;;;2097601;28;793;-56
2021/08/14 03:48:15;;;;;;;;;;;20.50;99.90;;;;;;2094087;28;742;-58
2021/08/14 03:49:34;;;;;;;;;;;20.50;99.90;;;;;;2098220;28;701;-58
2021/08/14 03:50:53;;;;;;;;;;;20.50;99.90;;;;;;2096939;28;820;-58
2021/08/14 03:52:13;;;;;;;;;;;20.50;99.90;;;;;;2094155;28;1952;-58
2021/08/14 03:53:32;;;;;;;;;;;20.50;99.90;;;;;;2094259;28;749;-58
2021/08/14 03:54:51;;;;;;;;;;;20.50;99.90;;;;;;2094209;28;1464;-58
2021/08/14 03:56:10;;;;;;;;;;;20.50;99.90;;;;;;2085908;28;846;-58
2021/08/14 03:57:30;;;;;;;;;;;20.50;99.90;;;;;;2094796;28;717;-58
2021/08/14 03:58:49;;;;;;;;;;;20.50;99.90;;;;;;2102701;28;908;-58
2021/08/14 04:00:08;;;;;;;;;;;20.50;99.90;;;;;;2110177;28;1233;-58
2021/08/14 04:01:27;;;;;;;;;;;20.50;99.90;;;;;;2104017;28;1158;-57
2021/08/14 04:02:47;;;;;;;;;;;20.50;99.90;;;;;;2102605;28;1573;-56
2021/08/14 04:04:06;;;;;;;;;;;20.40;99.90;;;;;;2097644;28;736;-58
2021/08/14 04:05:26;;;;;;;;;;;20.50;99.90;;;;;;2103098;28;691;-57
2021/08/14 04:06:45;;;;;;;;;;;20.50;99.90;;;;;;2097091;28;1350;-57
2021/08/14 04:08:04;;;;;;;;;;;20.40;99.90;;;;;;2097616;28;722;-57
2021/08/14 04:09:23;;;;;;;;;;;20.40;99.90;;;;;;2097901;28;715;-57
2021/08/14 04:10:42;;;;;;;;;;;20.40;99.90;;;;;;2096813;28;723;-57
2021/08/14 04:12:02;;;;;;;;;;;20.40;99.90;;;;;;2094297;28;755;-57
2021/08/14 04:13:21;;;;;;;;;;;20.40;99.90;;;;;;2097825;28;794;-57
2021/08/14 04:14:40;;;;;;;;;;;20.40;99.90;;;;;;2098236;28;1351;-57
2021/08/14 04:15:59;;;;;;;;;;;20.40;99.90;;;;;;2098153;28;696;-57
2021/08/14 04:17:18;;;;;;;;;;;20.40;99.90;;;;;;2097631;28;1549;-57
2021/08/14 04:18:38;;;;;;;;;;;20.40;99.90;;;;;;2094101;28;856;-58
2021/08/14 04:19:57;;;;;;;;;;;20.40;99.90;;;;;;2085864;28;769;-60
2021/08/14 04:21:16;;;;;;;;;;;20.40;99.90;;;;;;2100526;28;1982;-57
2021/08/14 04:22:36;;;;;;;;;;;20.40;99.90;;;;;;2106452;28;787;-61
2021/08/14 04:23:55;;;;;;;;;;;20.40;99.90;;;;;;2105066;28;708;-57
2021/08/14 04:25:14;;;;;;;;;;;20.40;99.90;;;;;;2105970;28;723;-58
2021/08/14 04:26:34;;;;;;;;;;;20.40;99.90;;;;;;2105719;28;719;-60
2021/08/14 04:27:53;;;;;;;;;;;20.40;99.90;;;;;;2094081;28;745;-57
2021/08/14 04:29:12;;;;;;;;;;;20.40;99.90;;;;;;2103239;28;1038;-59
2021/08/14 04:30:31;;;;;;;;;;;20.30;99.90;;;;;;2104476;28;1291;-59
2021/08/14 04:31:51;;;;;;;;;;;20.40;99.90;;;;;;2096365;28;1674;-60
2021/08/14 04:33:11;;;;;;;;;;;20.40;99.90;;;;;;2102629;28;752;-60
2021/08/14 04:34:30;;;;;;;;;;;20.40;99.90;;;;;;2102130;28;2041;-57
2021/08/14 04:35:49;;;;;;;;;;;20.40;99.90;;;;;;2097555;28;812;-58
2021/08/14 04:37:08;;;;;;;;;;;20.40;99.90;;;;;;2088779;28;781;-61
2021/08/14 04:38:28;;;;;;;;;;;20.40;99.90;;;;;;2094295;28;840;-60
2021/08/14 04:39:47;;;;;;;;;;;20.40;99.90;;;;;;2097113;28;823;-59
2021/08/14 04:41:06;;;;;;;;;;;20.40;99.90;;;;;;2099854;28;1744;-55
2021/08/14 04:42:25;;;;;;;;;;;20.40;99.90;;;;;;2095501;28;1177;-58
2021/08/14 04:43:44;;;;;;;;;;;20.40;99.90;;;;;;2101533;28;1041;-62
2021/08/14 04:45:04;;;;;;;;;;;20.40;99.90;;;;;;2104491;28;1519;-60
2021/08/14 04:46:23;;;;;;;;;;;20.40;99.90;;;;;;2103086;28;1494;-60
2021/08/14 04:47:42;;;;;;;;;;;20.40;99.90;;;;;;2098711;28;1288;-61
2021/08/14 04:49:01;;;;;;;;;;;20.40;99.90;;;;;;2100942;28;1463;-58
2021/08/14 04:50:21;;;;;;;;;;;20.40;99.90;;;;;;2105827;28;1158;-60
2021/08/14 04:51:40;;;;;;;;;;;20.40;99.90;;;;;;2104283;28;1300;-58
2021/08/14 04:52:59;;;;;;;;;;;20.40;99.90;;;;;;2105633;28;1129;-59
2021/08/14 04:54:19;;;;;;;;;;;20.30;99.90;;;;;;2106091;28;1965;-61
2021/08/14 04:55:38;;;;;;;;;;;20.40;99.90;;;;;;2104622;28;1240;-59
2021/08/14 04:56:57;;;;;;;;;;;20.40;99.90;;;;;;2105203;28;1102;-63
2021/08/14 04:58:16;;;;;;;;;;;20.40;99.90;;;;;;2104195;28;1149;-57
2021/08/14 04:59:36;;;;;;;;;;;20.40;99.90;;;;;;2111853;28;1041;-61
2021/08/14 05:00:55;;;;;;;;;;;20.40;99.90;;;;;;2100445;28;997;-60
2021/08/14 05:02:14;;;;;;;;;;;20.40;99.90;;;;;;2097359;28;757;-60
2021/08/14 05:03:33;;;;;;;;;;;20.30;99.90;;;;;;2096890;28;1652;-57
2021/08/14 05:04:53;;;;;;;;;;;20.40;99.90;;;;;;2105952;28;1344;-62
2021/08/14 05:06:12;;;;;;;;;;;20.20;99.90;;;;;;2106287;28;789;-58
2021/08/14 05:07:32;;;;;;;;;;;20.20;99.90;;;;;;2105365;28;770;-62
2021/08/14 05:08:51;;;;;;;;;;;20.10;99.90;;;;;;2104835;28;738;-59
2021/08/14 05:10:14;;;;;;;;;;;20.10;99.90;;;;;;2099268;28;1599;-60
2021/08/14 05:11:34;;;;;;;;;;;20.20;99.90;;;;;;2094044;28;738;-57
2021/08/14 05:12:53;;;;;;;;;;;20.20;99.90;;;;;;2097520;28;719;-58
2021/08/14 05:14:12;;;;;;;;;;;20.10;99.90;;;;;;2088622;28;1905;-57
2021/08/14 05:15:31;;;;;;;;;;;20.20;99.90;;;;;;2094257;28;719;-58
2021/08/14 05:16:50;;;;;;;;;;;20.20;99.90;;;;;;2097489;28;1671;-58
2021/08/14 05:18:09;;;;;;;;;;;20.20;99.90;;;;;;2097209;28;797;-59
2021/08/14 05:19:28;;;;;;;;;;;20.20;99.90;;;;;;2097101;28;1978;-57
2021/08/14 05:20:47;;;;;;;;;;;20.20;99.90;;;;;;2096982;28;712;-59
2021/08/14 05:22:07;;;;;;;;;;;20.20;99.90;;;;;;2088701;28;784;-56
2021/08/14 05:23:26;;;;;;;;;;;20.20;99.90;;;;;;2094118;28;755;-60
2021/08/14 05:24:45;;;;;;;;;;;20.20;99.90;;;;;;2100349;28;1600;-61
2021/08/14 05:26:04;;;;;;;;;;;20.30;99.90;;;;;;2096945;28;745;-60
2021/08/14 05:27:23;;;;;;;;;;;20.20;99.90;;;;;;2102462;28;707;-60
2021/08/14 05:28:43;;;;;;;;;;;20.20;99.90;;;;;;2105750;28;915;-62
2021/08/14 05:30:02;;;;;;;;;;;20.20;99.90;;;;;;2101842;28;1002;-62
2021/08/14 05:31:21;;;;;;;;;;;20.30;99.90;;;;;;2101433;28;1667;-60
2021/08/14 05:32:41;;;;;;;;;;;20.20;99.90;;;;;;2105696;28;752;-60
2021/08/14 05:34:04;;;;;;;;;;;20.30;99.90;;;;;;2105149;28;1965;-60
2021/08/14 05:35:24;;;;;;;;;;;20.20;99.90;;;;;;2102756;28;743;-63
2021/08/14 05:36:43;;;;;;;;;;;20.30;99.90;;;;;;2104349;28;1184;-60
2021/08/14 05:38:02;;;;;;;;;;;20.30;99.90;;;;;;2105720;28;688;-60
2021/08/14 05:39:21;;;;;;;;;;;20.30;99.90;;;;;;2104487;28;1595;-60
2021/08/14 05:40:40;;;;;;;;;;;20.30;99.90;;;;;;2104848;28;762;-62
2021/08/14 05:42:01;;;;;;;;;;;20.30;99.90;;;;;;2097143;28;746;-58
2021/08/14 05:43:21;;;;;;;;;;;20.30;99.90;;;;;;2102625;28;717;-59
2021/08/14 05:44:40;;;;;;;;;;;20.30;99.90;;;;;;2105556;28;1458;-58
2021/08/14 05:45:59;;;;;;;;;;;20.30;99.90;;;;;;2096963;28;762;-58
2021/08/14 05:47:18;;;;;;;;;;;20.30;99.90;;;;;;2093527;28;725;-58
2021/08/14 05:48:38;;;;;;;;;;;20.30;99.90;;;;;;2089889;28;1586;-58
2021/08/14 05:49:57;;;;;;;;;;;20.30;99.90;;;;;;2093792;28;796;-58
2021/08/14 05:51:16;;;;;;;;;;;20.30;99.90;;;;;;2097179;28;796;-58
2021/08/14 05:52:35;;;;;;;;;;;20.30;99.90;;;;;;2097646;28;753;-59
2021/08/14 05:53:54;;;;;;;;;;;20.30;99.90;;;;;;2097474;28;1969;-58
2021/08/14 05:55:14;;;;;;;;;;;20.30;99.90;;;;;;2095268;28;767;-58
2021/08/14 05:56:33;;;;;;;;;;;20.40;99.90;;;;;;2095411;28;736;-58
2021/08/14 05:57:54;;;;;;;;;;;20.40;99.90;;;;;;2094964;28;753;-56
2021/08/14 05:59:13;;;;;;;;;;;20.40;99.90;;;;;;2109896;28;1079;-52
2021/08/14 06:00:32;;;;;;;;;;;20.40;99.90;;;;;;2104606;28;1209;-58
2021/08/14 06:01:51;;;;;;;;;;;20.30;99.90;;;;;;2111932;28;863;-54
2021/08/14 06:03:10;;;;;;;;;;;20.20;99.90;;;;;;2115353;28;767;-55
2021/08/14 06:04:29;;;;;;;;;;;20.10;99.90;;;;;;2106951;28;1414;-58
2021/08/14 06:05:49;;;;;;;;;;;20.10;99.90;;;;;;2099196;28;1591;-58
2021/08/14 06:07:08;;;;;;;;;;;20.00;99.90;;;;;;2102776;28;1422;-58
2021/08/14 06:08:27;;;;;;;;;;;19.90;99.90;;;;;;2100218;28;1197;-58
2021/08/14 06:09:46;;;;;;;;;;;19.90;99.90;;;;;;2098176;28;1191;-57
2021/08/14 06:11:05;;;;;;;;;;;20.00;99.90;;;;;;2105805;28;913;-58
2021/08/14 06:12:25;;;;;;;;;;;20.00;99.90;;;;;;2108467;28;1285;-57
2021/08/14 06:13:44;;;;;;;;;;;20.10;99.90;;;;;;2100950;28;914;-58
2021/08/14 06:15:03;;;;;;;;;;;20.10;99.90;;;;;;2108220;28;1413;-58
2021/08/14 06:16:22;;;;;;;;;;;20.20;99.90;;;;;;2107453;28;1654;-58
2021/08/14 06:17:42;;;;;;;;;;;20.20;99.90;;;;;;2108137;28;1083;-55
2021/08/14 06:19:01;;;;;;;;;;;20.20;99.90;;;;;;2107858;28;1243;-57
2021/08/14 06:20:20;;;;;;;;;;;20.20;99.90;;;;;;2106623;28;1077;-55
2021/08/14 06:21:39;;;;;;;;;;;20.20;99.90;;;;;;2099248;28;1742;-55
2021/08/14 06:22:58;;;;;;;;;;;20.30;99.90;;;;;;2105382;28;1258;-56
2021/08/14 06:24:17;;;;;;;;;;;20.30;99.90;;;;;;2097937;28;1559;-57
2021/08/14 06:25:37;;;;;;;;;;;20.30;99.90;;;;;;2095638;28;1225;-55
2021/08/14 06:26:56;;;;;;;;;;;20.30;99.90;;;;;;2101542;28;1232;-57
2021/08/14 06:28:15;;;;;;;;;;;20.30;99.90;;;;;;2106594;28;1465;-56
2021/08/14 06:29:34;;;;;;;;;;;20.40;99.90;;;;;;2099261;28;1330;-57
2021/08/14 06:30:53;;;;;;;;;;;20.40;99.90;;;;;;2103501;28;1353;-56
2021/08/14 06:32:13;;;;;;;;;;;20.40;99.90;;;;;;2106215;28;1292;-56
2021/08/14 06:33:32;;;;;;;;;;;20.40;99.90;;;;;;2096972;28;1268;-56
2021/08/14 06:34:52;;;;;;;;;;;20.40;99.90;;;;;;2104529;28;1435;-56
2021/08/14 06:36:12;;;;;;;;;;;20.40;99.90;;;;;;2108438;28;1339;-57
2021/08/14 06:37:31;;;;;;;;;;;20.40;99.90;;;;;;2092736;28;914;-56
2021/08/14 06:38:50;;;;;;;;;;;20.40;99.90;;;;;;2098986;28;1263;-55
2021/08/14 06:40:10;;;;;;;;;;;20.40;99.90;;;;;;2105594;28;1174;-57
2021/08/14 06:41:29;;;;;;;;;;;20.40;99.90;;;;;;2104942;28;1018;-57
2021/08/14 06:42:49;;;;;;;;;;;20.40;99.90;;;;;;2105443;28;1244;-56
2021/08/14 06:44:08;;;;;;;;;;;20.40;99.90;;;;;;2106710;28;1272;-55
2021/08/14 06:45:27;;;;;;;;;;;20.40;99.90;;;;;;2106910;28;1229;-57
2021/08/14 06:46:46;;;;;;;;;;;20.40;99.90;;;;;;2104459;28;1298;-57
2021/08/14 06:48:05;;;;;;;;;;;20.40;99.90;;;;;;2102726;28;1172;-56
2021/08/14 06:49:24;;;;;;;;;;;20.40;99.90;;;;;;2105972;28;1473;-56
2021/08/14 06:50:44;;;;;;;;;;;20.50;99.90;;;;;;2105765;28;978;-55
2021/08/14 06:52:03;;;;;;;;;;;20.50;99.90;;;;;;2106255;28;1443;-57
2021/08/14 06:53:22;;;;;;;;;;;20.50;99.90;;;;;;2103318;28;1159;-56
2021/08/14 06:54:41;;;;;;;;;;;20.50;99.90;;;;;;2102468;28;1905;-56
2021/08/14 06:56:01;;;;;;;;;;;20.50;99.90;;;;;;2104388;28;1447;-56
2021/08/14 06:57:20;;;;;;;;;;;20.50;99.90;;;;;;2105141;28;1109;-60
2021/08/14 06:58:39;;;;;;;;;;;20.50;99.90;;;;;;2105917;28;1122;-56
2021/08/14 06:59:58;;;;;;;;;;;20.50;99.90;;;;;;2107355;28;985;-59
2021/08/14 07:01:17;;;;;;;;;;;20.50;99.90;;;;;;2106218;28;1297;-62
2021/08/14 07:02:37;;;;;;;;;;;20.50;99.90;;;;;;2096896;28;1691;-60
2021/08/14 07:03:56;;;;;;;;;;;20.50;99.90;;;;;;2101638;28;1739;-61
2021/08/14 07:05:15;;;;;;;;;;;20.50;99.90;;;;;;2104096;28;1107;-62
2021/08/14 07:06:34;;;;;;;;;;;20.50;99.90;;;;;;2106099;28;1576;-58
2021/08/14 07:07:54;;;;;;;;;;;20.50;99.90;;;;;;2102447;28;1286;-60
2021/08/14 07:09:13;;;;;;;;;;;20.50;99.90;;;;;;2103944;28;1297;-59
2021/08/14 07:10:32;;;;;;;;;;;20.50;99.90;;;;;;2106738;28;1125;-58
2021/08/14 07:11:52;;;;;;;;;;;20.50;99.90;;;;;;2098497;28;1047;-60
2021/08/14 07:13:11;;;;;;;;;;;20.50;99.90;;;;;;2102547;28;1296;-58
2021/08/14 07:14:30;;;;;;;;;;;20.50;99.90;;;;;;2107538;28;1980;-61
2021/08/14 07:15:49;;;;;;;;;;;20.60;99.90;;;;;;2106696;28;1273;-61
2021/08/14 07:17:08;;;;;;;;;;;20.50;99.90;;;;;;2101475;28;1199;-59
2021/08/14 07:18:27;;;;;;;;;;;20.50;99.90;;;;;;2106889;28;1323;-61
2021/08/14 07:19:47;;;;;;;;;;;20.50;99.90;;;;;;2105022;28;1289;-60
2021/08/14 07:21:06;;;;;;;;;;;20.50;99.90;;;;;;2096538;28;1400;-58
2021/08/14 07:22:25;;;;;;;;;;;20.50;99.90;;;;;;2104891;28;1086;-61
2021/08/14 07:23:44;;;;;;;;;;;20.50;99.90;;;;;;2103992;28;1171;-58
2021/08/14 07:25:04;;;;;;;;;;;20.50;99.90;;;;;;2103823;28;1344;-61
2021/08/14 07:26:23;;;;;;;;;;;20.50;99.90;;;;;;2104700;28;1527;-60
2021/08/14 07:27:43;;;;;;;;;;;20.60;99.90;;;;;;2103363;28;1268;-61
2021/08/14 07:29:02;;;;;;;;;;;20.50;99.90;;;;;;2105441;28;987;-62
2021/08/14 07:30:21;;;;;;;;;;;20.60;99.90;;;;;;2108187;28;1326;-60
2021/08/14 07:31:40;;;;;;;;;;;20.60;99.90;;;;;;2107486;28;1574;-59
2021/08/14 07:32:59;;;;;;;;;;;20.50;99.90;;;;;;2098239;28;1297;-61
2021/08/14 07:34:19;;;;;;;;;;;20.60;99.90;;;;;;2103227;28;1909;-59
2021/08/14 07:35:38;;;;;;;;;;;20.60;99.90;;;;;;2107948;28;1479;-58
2021/08/14 07:36:57;;;;;;;;;;;20.50;99.90;;;;;;2107806;28;1242;-62
2021/08/14 07:38:17;;;;;;;;;;;20.50;99.90;;;;;;2106031;28;1265;-60
2021/08/14 07:39:36;;;;;;;;;;;20.60;99.90;;;;;;2107414;28;1272;-61
2021/08/14 07:40:55;;;;;;;;;;;20.60;99.90;;;;;;2105985;28;1261;-59
2021/08/14 07:42:14;;;;;;;;;;;20.60;99.90;;;;;;2105754;28;1267;-59
2021/08/14 07:43:33;;;;;;;;;;;20.60;99.90;;;;;;2104333;28;1709;-62
2021/08/14 07:44:55;;;;;;;;;;;20.60;99.90;;;;;;2108604;28;1345;-60
2021/08/14 07:46:14;;;;;;;;;;;20.60;99.90;;;;;;2105460;28;1448;-62
2021/08/14 07:47:34;;;;;;;;;;;20.70;99.90;;;;;;2099299;28;1266;-61
2021/08/14 07:48:54;;;;;;;;;;;20.70;99.90;;;;;;2091341;28;1254;-63
2021/08/14 07:50:16;;;;;;;;;;;20.70;99.90;;;;;;2102136;28;1435;-61
2021/08/14 07:51:35;;;;;;;;;;;20.70;99.90;;;;;;2108095;28;1156;-61